Milwaukee, WI

10:52 PM CDT on July 24, 2016 (GMT -0500)
Batten | | Change Station

Elev 673 ft 42.76 °N, 87.81 °W | Updated 59 minutes ago

Clear
Clear
83 °F
Feels Like 90 °F
N
5
Wind Variable Wind from WNW

Today
High -- | Low -- °F
--% Chance of Precip.
Yesterday
High -- | Low -- °F
Precip. -- in
Pressure 29.87 in
Visibility 10.0 miles
Clouds Clear
Heat Index 90 °F
Dew Point 75 °F
Humidity 77%
Rainfall 0.18 in
Snow Depth Not available.
5:35 AM 8:21 PM
Waning Gibbous, 70% visible
METAR KRAC 250253Z AUTO 29004KT 10SM CLR 28/24 A2989 RMK AO2 SLP115 60005 T02830239 53018
Pressure 29.87 in
Visibility 10.0 miles
Clouds Clear
Heat Index 90 °F
Dew Point 75 °F
Humidity 77%
Rainfall 0.18 in
Snow Depth Not available.
5:35 AM 8:21 PM
Waning Gibbous, 70% visible
METAR KRAC 250253Z AUTO 29004KT 10SM CLR 28/24 A2989 RMK AO2 SLP115 60005 T02830239 53018

10-Day Weather Forecast

Almanac

Astronomy

Jul. 24, 2016 Rise Set
Actual Time
Civil Twilight
Nautical Twilight
Astronomical Twilight
Moon
Length of Visible Light
Length of Day
Tomorrow will be .
, % of the Moon is Illuminated

Today's Extremes

State Highs State Lows

Community

WunderPhotos

Upload Photos

1,927,256 photos uploaded!

WunderBlog® & News

Nearby

Air Quality

  Air Quality AQ Index Pollutant
Not available.

Snow Depth

Station Depth Elevation

Earthquake Activity

City Distance Mag. Time & Date
Minimum magnitude displayed is 2.5.

Coastal Water Temperatures

Place Temperature

Stations

Nearby Weather Stations

Station Location Temp. Windchill Dew Point Humidity Wind Precip. Elev Updated Type
                   

Watches & Warnings

There are currently no watches in effect.